sensor_id;sensor_type;location;lat;lon;timestamp;temperature;humidity
782;DHT22;374;52.568;13.402;2023-08-21T00:02:16;25.30;99.90
782;DHT22;374;52.568;13.402;2023-08-21T00:04:41;25.40;99.90
782;DHT22;374;52.568;13.402;2023-08-21T00:07:07;25.40;99.90
782;DHT22;374;52.568;13.402;2023-08-21T00:09:34;25.40;99.90
782;DHT22;374;52.568;13.402;2023-08-21T00:11:59;25.30;99.90
782;DHT22;374;52.568;13.402;2023-08-21T00:14:25;25.30;99.90
782;DHT22;374;52.568;13.402;2023-08-21T00:16:50;25.30;99.90
782;DHT22;374;52.568;13.402;2023-08-21T00:19:16;25.30;99.90
782;DHT22;374;52.568;13.402;2023-08-21T00:21:41;25.20;99.90
782;DHT22;374;52.568;13.402;2023-08-21T00:24:07;25.20;99.90
782;DHT22;374;52.568;13.402;2023-08-21T00:26:33;25.20;99.90
782;DHT22;374;52.568;13.402;2023-08-21T00:28:58;25.20;99.90
782;DHT22;374;52.568;13.402;2023-08-21T00:31:26;25.20;99.90
782;DHT22;374;52.568;13.402;2023-08-21T00:33:52;25.20;99.90
782;DHT22;374;52.568;13.402;2023-08-21T00:36:17;25.20;99.90
782;DHT22;374;52.568;13.402;2023-08-21T00:38:44;25.10;99.90
782;DHT22;374;52.568;13.402;2023-08-21T00:41:10;25.10;99.90
782;DHT22;374;52.568;13.402;2023-08-21T00:43:35;25.10;99.90
782;DHT22;374;52.568;13.402;2023-08-21T00:46:01;25.10;99.90
782;DHT22;374;52.568;13.402;2023-08-21T00:48:28;25.10;99.90
782;DHT22;374;52.568;13.402;2023-08-21T00:50:53;25.10;99.90
782;DHT22;374;52.568;13.402;2023-08-21T00:53:19;25.10;99.90
782;DHT22;374;52.568;13.402;2023-08-21T00:55:45;25.10;99.90
782;DHT22;374;52.568;13.402;2023-08-21T00:58:11;25.00;99.90
782;DHT22;374;52.568;13.402;2023-08-21T01:00:41;25.00;99.90
782;DHT22;374;52.568;13.402;2023-08-21T01:03:07;25.00;99.90
782;DHT22;374;52.568;13.402;2023-08-21T01:05:34;25.00;99.90
782;DHT22;374;52.568;13.402;2023-08-21T01:08:05;25.00;99.90
782;DHT22;374;52.568;13.402;2023-08-21T01:10:43;24.90;99.90
782;DHT22;374;52.568;13.402;2023-08-21T01:13:40;25.00;99.90
782;DHT22;374;52.568;13.402;2023-08-21T01:16:08;24.90;99.90
782;DHT22;374;52.568;13.402;2023-08-21T01:18:35;24.90;99.90
782;DHT22;374;52.568;13.402;2023-08-21T01:21:02;24.90;99.90
782;DHT22;374;52.568;13.402;2023-08-21T01:23:36;24.90;99.90
782;DHT22;374;52.568;13.402;2023-08-21T01:26:03;24.90;99.90
782;DHT22;374;52.568;13.402;2023-08-21T01:28:32;24.90;99.90
782;DHT22;374;52.568;13.402;2023-08-21T01:31:24;24.90;99.90
782;DHT22;374;52.568;13.402;2023-08-21T01:33:54;24.90;99.90
782;DHT22;374;52.568;13.402;2023-08-21T01:36:23;24.80;99.90
782;DHT22;374;52.568;13.402;2023-08-21T01:38:50;24.80;99.90
782;DHT22;374;52.568;13.402;2023-08-21T01:41:15;24.80;99.90
782;DHT22;374;52.568;13.402;2023-08-21T01:43:41;24.80;99.90
782;DHT22;374;52.568;13.402;2023-08-21T01:46:07;24.80;99.90
782;DHT22;374;52.568;13.402;2023-08-21T01:48:32;24.80;99.90
782;DHT22;374;52.568;13.402;2023-08-21T01:51:01;24.80;99.90
782;DHT22;374;52.568;13.402;2023-08-21T01:53:26;24.70;99.90
782;DHT22;374;52.568;13.402;2023-08-21T01:55:52;24.70;99.90
782;DHT22;374;52.568;13.402;2023-08-21T01:58:17;24.70;99.90
782;DHT22;374;52.568;13.402;2023-08-21T02:00:46;24.70;99.90
782;DHT22;374;52.568;13.402;2023-08-21T02:03:11;24.70;99.90
782;DHT22;374;52.568;13.402;2023-08-21T02:05:38;24.70;99.90
782;DHT22;374;52.568;13.402;2023-08-21T02:08:06;24.70;99.90
782;DHT22;374;52.568;13.402;2023-08-21T02:10:31;24.70;99.90
782;DHT22;374;52.568;13.402;2023-08-21T02:12:57;24.70;99.90
782;DHT22;374;52.568;13.402;2023-08-21T02:15:22;24.70;99.90
782;DHT22;374;52.568;13.402;2023-08-21T02:17:48;24.70;99.90
782;DHT22;374;52.568;13.402;2023-08-21T02:20:13;24.70;99.90
782;DHT22;374;52.568;13.402;2023-08-21T02:22:39;24.70;99.90
782;DHT22;374;52.568;13.402;2023-08-21T02:25:05;24.70;99.90
782;DHT22;374;52.568;13.402;2023-08-21T02:27:30;24.70;99.90
782;DHT22;374;52.568;13.402;2023-08-21T02:29:56;24.60;99.90
782;DHT22;374;52.568;13.402;2023-08-21T02:32:21;24.70;99.90
782;DHT22;374;52.568;13.402;2023-08-21T02:34:47;24.60;99.90
782;DHT22;374;52.568;13.402;2023-08-21T02:37:12;24.70;99.90
782;DHT22;374;52.568;13.402;2023-08-21T02:39:38;24.60;99.90
782;DHT22;374;52.568;13.402;2023-08-21T02:42:03;24.60;99.90
782;DHT22;374;52.568;13.402;2023-08-21T02:44:29;24.60;99.90
782;DHT22;374;52.568;13.402;2023-08-21T02:46:54;24.60;99.90
782;DHT22;374;52.568;13.402;2023-08-21T02:49:20;24.60;99.90
782;DHT22;374;52.568;13.402;2023-08-21T02:51:45;24.60;99.90
782;DHT22;374;52.568;13.402;2023-08-21T02:54:11;24.60;99.90
782;DHT22;374;52.568;13.402;2023-08-21T02:56:36;24.50;99.90
782;DHT22;374;52.568;13.402;2023-08-21T02:59:02;24.50;99.90
782;DHT22;374;52.568;13.402;2023-08-21T03:01:27;24.50;99.90
782;DHT22;374;52.568;13.402;2023-08-21T03:03:53;24.50;99.90
782;DHT22;374;52.568;13.402;2023-08-21T03:06:21;24.50;99.90
782;DHT22;374;52.568;13.402;2023-08-21T03:08:47;24.50;99.90
782;DHT22;374;52.568;13.402;2023-08-21T03:11:12;24.50;99.90
782;DHT22;374;52.568;13.402;2023-08-21T03:13:38;24.50;99.90
782;DHT22;374;52.568;13.402;2023-08-21T03:16:04;24.50;99.90
782;DHT22;374;52.568;13.402;2023-08-21T03:18:31;24.50;99.90
782;DHT22;374;52.568;13.402;2023-08-21T03:20:57;24.50;99.90
782;DHT22;374;52.568;13.402;2023-08-21T03:23:22;24.50;99.90
782;DHT22;374;52.568;13.402;2023-08-21T03:25:48;24.40;99.90
782;DHT22;374;52.568;13.402;2023-08-21T03:28:13;24.50;99.90
782;DHT22;374;52.568;13.402;2023-08-21T03:30:39;24.50;99.90
782;DHT22;374;52.568;13.402;2023-08-21T03:33:05;24.50;99.90
782;DHT22;374;52.568;13.402;2023-08-21T03:35:31;24.40;99.90
782;DHT22;374;52.568;13.402;2023-08-21T03:37:56;24.50;99.90
782;DHT22;374;52.568;13.402;2023-08-21T03:40:21;24.40;99.90
782;DHT22;374;52.568;13.402;2023-08-21T03:42:47;24.40;99.90
782;DHT22;374;52.568;13.402;2023-08-21T03:45:12;24.40;99.90
782;DHT22;374;52.568;13.402;2023-08-21T03:47:38;24.40;99.90
782;DHT22;374;52.568;13.402;2023-08-21T03:50:04;24.40;99.90
782;DHT22;374;52.568;13.402;2023-08-21T03:52:29;24.40;99.90
782;DHT22;374;52.568;13.402;2023-08-21T03:54:55;24.40;99.90
782;DHT22;374;52.568;13.402;2023-08-21T03:57:20;24.40;99.90
782;DHT22;374;52.568;13.402;2023-08-21T03:59:45;24.40;99.90
782;DHT22;374;52.568;13.402;2023-08-21T04:02:11;24.30;99.90
782;DHT22;374;52.568;13.402;2023-08-21T04:04:36;24.30;99.90
782;DHT22;374;52.568;13.402;2023-08-21T04:07:02;24.30;99.90
782;DHT22;374;52.568;13.402;2023-08-21T04:09:28;24.30;99.90
782;DHT22;374;52.568;13.402;2023-08-21T04:11:53;24.30;99.90
782;DHT22;374;52.568;13.402;2023-08-21T04:14:18;24.30;99.90
782;DHT22;374;52.568;13.402;2023-08-21T04:16:44;24.30;99.90
782;DHT22;374;52.568;13.402;2023-08-21T04:19:09;24.30;99.90
782;DHT22;374;52.568;13.402;2023-08-21T04:21:35;24.30;99.90
782;DHT22;374;52.568;13.402;2023-08-21T04:24:00;24.30;99.90
782;DHT22;374;52.568;13.402;2023-08-21T04:26:26;24.30;99.90
782;DHT22;374;52.568;13.402;2023-08-21T04:28:51;24.30;99.90
782;DHT22;374;52.568;13.402;2023-08-21T04:31:17;24.30;99.90
782;DHT22;374;52.568;13.402;2023-08-21T04:33:42;24.20;99.90
782;DHT22;374;52.568;13.402;2023-08-21T04:36:14;24.20;99.90
782;DHT22;374;52.568;13.402;2023-08-21T04:38:40;24.20;99.90
782;DHT22;374;52.568;13.402;2023-08-21T04:41:06;24.20;99.90
782;DHT22;374;52.568;13.402;2023-08-21T04:43:33;24.20;99.90
782;DHT22;374;52.568;13.402;2023-08-21T04:45:58;24.20;99.90
782;DHT22;374;52.568;13.402;2023-08-21T04:48:23;24.20;99.90
782;DHT22;374;52.568;13.402;2023-08-21T04:50:49;24.20;99.90
782;DHT22;374;52.568;13.402;2023-08-21T04:53:15;24.20;99.90
782;DHT22;374;52.568;13.402;2023-08-21T04:55:42;24.20;99.90
782;DHT22;374;52.568;13.402;2023-08-21T04:58:08;24.20;99.90
782;DHT22;374;52.568;13.402;2023-08-21T05:00:34;24.20;99.90
782;DHT22;374;52.568;13.402;2023-08-21T05:03:00;24.20;99.90
782;DHT22;374;52.568;13.402;2023-08-21T05:05:31;24.20;99.90
782;DHT22;374;52.568;13.402;2023-08-21T05:07:57;24.10;99.90
782;DHT22;374;52.568;13.402;2023-08-21T05:10:22;24.20;99.90
782;DHT22;374;52.568;13.402;2023-08-21T05:12:48;24.10;99.90
782;DHT22;374;52.568;13.402;2023-08-21T05:15:13;24.10;99.90
782;DHT22;374;52.568;13.402;2023-08-21T05:17:39;24.10;99.90
782;DHT22;374;52.568;13.402;2023-08-21T05:20:05;24.10;99.90
782;DHT22;374;52.568;13.402;2023-08-21T05:22:31;24.10;99.90
782;DHT22;374;52.568;13.402;2023-08-21T05:24:56;24.10;99.90
782;DHT22;374;52.568;13.402;2023-08-21T05:27:22;24.10;99.90
782;DHT22;374;52.568;13.402;2023-08-21T05:29:47;24.10;99.90
782;DHT22;374;52.568;13.402;2023-08-21T05:32:14;24.10;99.90
782;DHT22;374;52.568;13.402;2023-08-21T05:34:40;24.10;99.90
782;DHT22;374;52.568;13.402;2023-08-21T05:37:05;24.10;99.90
782;DHT22;374;52.568;13.402;2023-08-21T05:39:31;24.10;99.90
782;DHT22;374;52.568;13.402;2023-08-21T05:41:56;24.10;99.90
782;DHT22;374;52.568;13.402;2023-08-21T05:44:22;24.10;99.90
782;DHT22;374;52.568;13.402;2023-08-21T05:46:47;24.10;99.90
782;DHT22;374;52.568;13.402;2023-08-21T05:49:13;24.10;99.90
782;DHT22;374;52.568;13.402;2023-08-21T05:51:38;24.10;99.90
782;DHT22;374;52.568;13.402;2023-08-21T05:54:04;24.10;99.90
782;DHT22;374;52.568;13.402;2023-08-21T05:56:29;24.10;99.90
782;DHT22;374;52.568;13.402;2023-08-21T05:58:55;24.10;99.90
782;DHT22;374;52.568;13.402;2023-08-21T06:01:20;24.10;99.90
782;DHT22;374;52.568;13.402;2023-08-21T06:03:46;24.10;99.90
782;DHT22;374;52.568;13.402;2023-08-21T06:06:11;24.10;99.90
782;DHT22;374;52.568;13.402;2023-08-21T06:08:37;24.10;99.90
782;DHT22;374;52.568;13.402;2023-08-21T06:11:02;24.10;99.90
782;DHT22;374;52.568;13.402;2023-08-21T06:13:28;24.00;99.90
782;DHT22;374;52.568;13.402;2023-08-21T06:15:54;24.10;99.90
782;DHT22;374;52.568;13.402;2023-08-21T06:18:19;24.10;99.90
782;DHT22;374;52.568;13.402;2023-08-21T06:20:45;24.10;99.90
782;DHT22;374;52.568;13.402;2023-08-21T06:23:11;24.10;99.90
782;DHT22;374;52.568;13.402;2023-08-21T06:25:37;24.10;99.90
782;DHT22;374;52.568;13.402;2023-08-21T06:28:03;24.10;99.90
782;DHT22;374;52.568;13.402;2023-08-21T06:30:28;24.10;99.90
782;DHT22;374;52.568;13.402;2023-08-21T06:32:55;24.10;99.90
782;DHT22;374;52.568;13.402;2023-08-21T06:35:20;24.10;99.90
782;DHT22;374;52.568;13.402;2023-08-21T06:37:46;24.10;99.90
782;DHT22;374;52.568;13.402;2023-08-21T06:40:11;24.10;99.90
782;DHT22;374;52.568;13.402;2023-08-21T06:42:37;24.10;99.90
782;DHT22;374;52.568;13.402;2023-08-21T06:45:04;24.10;99.90
782;DHT22;374;52.568;13.402;2023-08-21T06:47:30;24.10;99.90
782;DHT22;374;52.568;13.402;2023-08-21T06:49:55;24.10;99.90
782;DHT22;374;52.568;13.402;2023-08-21T06:52:21;24.10;99.90
782;DHT22;374;52.568;13.402;2023-08-21T06:54:46;24.20;99.90
782;DHT22;374;52.568;13.402;2023-08-21T06:57:12;24.20;99.90
782;DHT22;374;52.568;13.402;2023-08-21T06:59:37;24.20;99.90
782;DHT22;374;52.568;13.402;2023-08-21T07:02:03;24.20;99.90
782;DHT22;374;52.568;13.402;2023-08-21T07:04:29;24.30;99.90
782;DHT22;374;52.568;13.402;2023-08-21T07:06:54;24.30;99.90
782;DHT22;374;52.568;13.402;2023-08-21T07:09:23;24.20;99.90
782;DHT22;374;52.568;13.402;2023-08-21T07:11:48;24.20;99.90
782;DHT22;374;52.568;13.402;2023-08-21T07:14:14;24.30;99.90
782;DHT22;374;52.568;13.402;2023-08-21T07:16:40;24.30;99.90
782;DHT22;374;52.568;13.402;2023-08-21T07:19:05;24.30;99.90
782;DHT22;374;52.568;13.402;2023-08-21T07:21:31;24.30;99.90
782;DHT22;374;52.568;13.402;2023-08-21T07:23:56;24.40;99.90
782;DHT22;374;52.568;13.402;2023-08-21T07:26:22;24.40;99.90
782;DHT22;374;52.568;13.402;2023-08-21T07:28:47;24.40;99.90
782;DHT22;374;52.568;13.402;2023-08-21T07:31:13;24.40;99.90
782;DHT22;374;52.568;13.402;2023-08-21T07:33:38;24.40;99.90
782;DHT22;374;52.568;13.402;2023-08-21T07:36:05;24.40;99.90
782;DHT22;374;52.568;13.402;2023-08-21T07:38:31;24.40;99.90
782;DHT22;374;52.568;13.402;2023-08-21T07:41:08;24.40;99.90
782;DHT22;374;52.568;13.402;2023-08-21T07:43:35;24.40;99.90
782;DHT22;374;52.568;13.402;2023-08-21T07:46:05;24.40;99.90
782;DHT22;374;52.568;13.402;2023-08-21T07:48:31;24.50;99.90
782;DHT22;374;52.568;13.402;2023-08-21T07:50:57;24.50;99.90
782;DHT22;374;52.568;13.402;2023-08-21T07:53:24;24.50;99.90
782;DHT22;374;52.568;13.402;2023-08-21T07:55:49;24.60;99.90
782;DHT22;374;52.568;13.402;2023-08-21T07:58:15;24.50;99.90
782;DHT22;374;52.568;13.402;2023-08-21T08:00:40;24.60;99.90
782;DHT22;374;52.568;13.402;2023-08-21T08:03:09;24.60;99.90
782;DHT22;374;52.568;13.402;2023-08-21T08:05:36;24.60;99.90
782;DHT22;374;52.568;13.402;2023-08-21T08:08:01;24.60;99.90
782;DHT22;374;52.568;13.402;2023-08-21T08:10:27;24.60;99.90
782;DHT22;374;52.568;13.402;2023-08-21T08:12:53;24.60;99.90
782;DHT22;374;52.568;13.402;2023-08-21T08:15:20;24.60;99.90
782;DHT22;374;52.568;13.402;2023-08-21T08:17:45;24.70;99.90
782;DHT22;374;52.568;13.402;2023-08-21T08:20:12;24.70;99.90
782;DHT22;374;52.568;13.402;2023-08-21T08:22:38;24.60;99.90
782;DHT22;374;52.568;13.402;2023-08-21T08:25:04;24.70;99.90
782;DHT22;374;52.568;13.402;2023-08-21T08:27:31;24.70;99.90
782;DHT22;374;52.568;13.402;2023-08-21T08:29:57;24.70;99.90
782;DHT22;374;52.568;13.402;2023-08-21T08:32:23;24.70;99.90
782;DHT22;374;52.568;13.402;2023-08-21T08:34:48;24.70;99.90
782;DHT22;374;52.568;13.402;2023-08-21T08:37:14;24.70;99.90
782;DHT22;374;52.568;13.402;2023-08-21T08:39:39;24.80;99.90
782;DHT22;374;52.568;13.402;2023-08-21T08:42:06;24.80;99.90
782;DHT22;374;52.568;13.402;2023-08-21T08:44:36;24.80;99.90
782;DHT22;374;52.568;13.402;2023-08-21T08:47:03;24.80;99.90
782;DHT22;374;52.568;13.402;2023-08-21T08:49:30;24.90;99.90
782;DHT22;374;52.568;13.402;2023-08-21T08:51:57;24.90;99.90
782;DHT22;374;52.568;13.402;2023-08-21T08:54:24;24.90;99.90
782;DHT22;374;52.568;13.402;2023-08-21T08:56:53;24.90;99.90
782;DHT22;374;52.568;13.402;2023-08-21T08:59:19;24.90;99.90
782;DHT22;374;52.568;13.402;2023-08-21T09:02:03;25.00;99.90
782;DHT22;374;52.568;13.402;2023-08-21T09:08:56;25.00;99.90
782;DHT22;374;52.568;13.402;2023-08-21T09:14:47;25.10;99.90
782;DHT22;374;52.568;13.402;2023-08-21T09:17:53;25.10;99.90
782;DHT22;374;52.568;13.402;2023-08-21T09:20:55;25.10;99.90
782;DHT22;374;52.568;13.402;2023-08-21T09:24:24;25.10;99.90
782;DHT22;374;52.568;13.402;2023-08-21T09:26:53;25.10;99.90
782;DHT22;374;52.568;13.402;2023-08-21T09:29:26;25.10;99.90
782;DHT22;374;52.568;13.402;2023-08-21T09:31:56;25.20;99.90
782;DHT22;374;52.568;13.402;2023-08-21T09:37:54;25.20;99.90
782;DHT22;374;52.568;13.402;2023-08-21T09:40:53;25.20;99.90
782;DHT22;374;52.568;13.402;2023-08-21T09:51:11;25.40;99.90
782;DHT22;374;52.568;13.402;2023-08-21T09:54:18;25.40;99.90
782;DHT22;374;52.568;13.402;2023-08-21T09:57:34;25.50;99.90
782;DHT22;374;52.568;13.402;2023-08-21T10:00:44;25.40;99.90
782;DHT22;374;52.568;13.402;2023-08-21T10:07:16;25.50;99.90
782;DHT22;374;52.568;13.402;2023-08-21T10:13:38;25.50;99.90
782;DHT22;374;52.568;13.402;2023-08-21T10:16:07;25.50;99.90
782;DHT22;374;52.568;13.402;2023-08-21T10:18:35;25.60;99.90
782;DHT22;374;52.568;13.402;2023-08-21T10:21:30;25.60;99.90
782;DHT22;374;52.568;13.402;2023-08-21T10:24:00;25.60;99.90
782;DHT22;374;52.568;13.402;2023-08-21T10:26:26;25.60;99.90
782;DHT22;374;52.568;13.402;2023-08-21T10:28:53;25.60;99.90
782;DHT22;374;52.568;13.402;2023-08-21T10:31:36;25.70;99.90
782;DHT22;374;52.568;13.402;2023-08-21T10:34:08;25.70;99.90
782;DHT22;374;52.568;13.402;2023-08-21T10:39:16;25.80;99.90
782;DHT22;374;52.568;13.402;2023-08-21T10:42:07;25.80;99.90
782;DHT22;374;52.568;13.402;2023-08-21T10:47:22;25.80;99.90
782;DHT22;374;52.568;13.402;2023-08-21T10:49:56;25.80;99.90
782;DHT22;374;52.568;13.402;2023-08-21T10:52:26;25.80;99.90
782;DHT22;374;52.568;13.402;2023-08-21T10:54:53;25.80;99.90
782;DHT22;374;52.568;13.402;2023-08-21T10:57:20;25.80;99.90
782;DHT22;374;52.568;13.402;2023-08-21T11:00:12;25.90;99.90
782;DHT22;374;52.568;13.402;2023-08-21T11:02:40;25.90;99.90
782;DHT22;374;52.568;13.402;2023-08-21T11:05:06;25.90;99.90
782;DHT22;374;52.568;13.402;2023-08-21T11:07:41;25.90;99.90
782;DHT22;374;52.568;13.402;2023-08-21T11:10:11;25.90;99.90
782;DHT22;374;52.568;13.402;2023-08-21T11:12:39;25.90;99.90
782;DHT22;374;52.568;13.402;2023-08-21T11:15:13;25.90;99.90
782;DHT22;374;52.568;13.402;2023-08-21T11:17:38;25.90;99.90
782;DHT22;374;52.568;13.402;2023-08-21T11:20:04;25.90;99.90
782;DHT22;374;52.568;13.402;2023-08-21T11:22:32;25.90;99.90
782;DHT22;374;52.568;13.402;2023-08-21T11:24:57;25.90;99.90
782;DHT22;374;52.568;13.402;2023-08-21T11:27:23;25.90;99.90
782;DHT22;374;52.568;13.402;2023-08-21T11:29:50;25.90;99.90
782;DHT22;374;52.568;13.402;2023-08-21T11:32:18;25.90;99.90
782;DHT22;374;52.568;13.402;2023-08-21T11:35:04;26.00;99.90
782;DHT22;374;52.568;13.402;2023-08-21T11:37:30;26.00;99.90
782;DHT22;374;52.568;13.402;2023-08-21T11:39:57;26.00;99.90
782;DHT22;374;52.568;13.402;2023-08-21T11:42:30;26.00;99.90
782;DHT22;374;52.568;13.402;2023-08-21T11:44:57;26.00;99.90
782;DHT22;374;52.568;13.402;2023-08-21T11:47:23;26.00;99.90
782;DHT22;374;52.568;13.402;2023-08-21T11:49:55;26.10;99.90
782;DHT22;374;52.568;13.402;2023-08-21T11:52:22;26.00;99.90
782;DHT22;374;52.568;13.402;2023-08-21T11:54:50;26.00;99.40
782;DHT22;374;52.568;13.402;2023-08-21T11:57:16;26.00;99.40
782;DHT22;374;52.568;13.402;2023-08-21T11:59:42;26.10;99.90
782;DHT22;374;52.568;13.402;2023-08-21T12:02:17;26.10;99.90
782;DHT22;374;52.568;13.402;2023-08-21T12:04:42;26.20;99.90
782;DHT22;374;52.568;13.402;2023-08-21T12:07:08;26.20;99.90
782;DHT22;374;52.568;13.402;2023-08-21T12:09:34;26.20;99.90
782;DHT22;374;52.568;13.402;2023-08-21T12:12:00;26.20;99.90
782;DHT22;374;52.568;13.402;2023-08-21T12:14:27;26.20;99.90
782;DHT22;374;52.568;13.402;2023-08-21T12:16:52;26.20;99.90
782;DHT22;374;52.568;13.402;2023-08-21T12:19:18;26.20;99.90
782;DHT22;374;52.568;13.402;2023-08-21T12:21:44;26.20;99.90
782;DHT22;374;52.568;13.402;2023-08-21T12:24:10;26.20;99.90
782;DHT22;374;52.568;13.402;2023-08-21T12:26:35;26.20;99.90
782;DHT22;374;52.568;13.402;2023-08-21T12:29:01;26.20;99.90
782;DHT22;374;52.568;13.402;2023-08-21T12:31:28;26.30;99.90
782;DHT22;374;52.568;13.402;2023-08-21T12:33:53;26.30;99.90
782;DHT22;374;52.568;13.402;2023-08-21T12:36:19;26.20;99.90
782;DHT22;374;52.568;13.402;2023-08-21T12:38:47;26.20;99.80
782;DHT22;374;52.568;13.402;2023-08-21T12:41:12;26.30;99.90
782;DHT22;374;52.568;13.402;2023-08-21T12:43:38;26.30;99.90
782;DHT22;374;52.568;13.402;2023-08-21T12:46:03;26.30;99.90
782;DHT22;374;52.568;13.402;2023-08-21T12:48:39;26.30;99.90
782;DHT22;374;52.568;13.402;2023-08-21T12:51:23;26.40;99.90
782;DHT22;374;52.568;13.402;2023-08-21T12:53:51;26.40;99.90
782;DHT22;374;52.568;13.402;2023-08-21T12:56:17;26.40;99.90
782;DHT22;374;52.568;13.402;2023-08-21T12:58:43;26.40;99.90
782;DHT22;374;52.568;13.402;2023-08-21T13:01:29;26.30;99.10
782;DHT22;374;52.568;13.402;2023-08-21T13:07:07;26.30;99.90
782;DHT22;374;52.568;13.402;2023-08-21T13:10:02;26.40;99.70
782;DHT22;374;52.568;13.402;2023-08-21T13:12:52;26.40;98.60
782;DHT22;374;52.568;13.402;2023-08-21T13:19:09;26.40;98.80
782;DHT22;374;52.568;13.402;2023-08-21T13:21:49;26.40;97.90
782;DHT22;374;52.568;13.402;2023-08-21T13:24:44;26.40;98.20
782;DHT22;374;52.568;13.402;2023-08-21T13:27:23;26.40;98.10
782;DHT22;374;52.568;13.402;2023-08-21T13:29:48;26.40;98.00
782;DHT22;374;52.568;13.402;2023-08-21T13:33:09;26.40;97.40
782;DHT22;374;52.568;13.402;2023-08-21T13:35:48;26.40;97.40
782;DHT22;374;52.568;13.402;2023-08-21T13:45:52;26.40;95.90
782;DHT22;374;52.568;13.402;2023-08-21T13:51:48;26.50;96.40
782;DHT22;374;52.568;13.402;2023-08-21T13:54:13;26.50;95.80
782;DHT22;374;52.568;13.402;2023-08-21T13:56:39;26.50;96.40
782;DHT22;374;52.568;13.402;2023-08-21T13:59:07;26.50;96.60
782;DHT22;374;52.568;13.402;2023-08-21T14:01:33;26.50;97.00
782;DHT22;374;52.568;13.402;2023-08-21T14:03:58;26.50;96.50
782;DHT22;374;52.568;13.402;2023-08-21T14:06:24;26.50;97.20
782;DHT22;374;52.568;13.402;2023-08-21T14:08:50;26.60;96.50
782;DHT22;374;52.568;13.402;2023-08-21T14:11:15;26.50;96.00
782;DHT22;374;52.568;13.402;2023-08-21T14:13:41;26.50;95.40
782;DHT22;374;52.568;13.402;2023-08-21T14:16:06;26.50;94.50
782;DHT22;374;52.568;13.402;2023-08-21T14:18:32;26.50;95.60
782;DHT22;374;52.568;13.402;2023-08-21T14:20:57;26.50;95.70
782;DHT22;374;52.568;13.402;2023-08-21T14:23:23;26.50;94.20
782;DHT22;374;52.568;13.402;2023-08-21T14:25:48;26.60;94.30
782;DHT22;374;52.568;13.402;2023-08-21T14:28:14;26.60;95.00
782;DHT22;374;52.568;13.402;2023-08-21T14:30:40;26.60;94.60
782;DHT22;374;52.568;13.402;2023-08-21T14:33:06;26.60;93.80
782;DHT22;374;52.568;13.402;2023-08-21T14:35:31;26.60;93.70
782;DHT22;374;52.568;13.402;2023-08-21T14:37:57;26.60;93.50
782;DHT22;374;52.568;13.402;2023-08-21T14:40:22;26.60;93.10
782;DHT22;374;52.568;13.402;2023-08-21T14:42:48;26.60;93.10
782;DHT22;374;52.568;13.402;2023-08-21T14:45:13;26.60;95.00
782;DHT22;374;52.568;13.402;2023-08-21T14:47:39;26.70;95.70
782;DHT22;374;52.568;13.402;2023-08-21T14:50:05;26.70;95.30
782;DHT22;374;52.568;13.402;2023-08-21T14:52:31;26.60;94.10
782;DHT22;374;52.568;13.402;2023-08-21T14:54:56;26.70;95.50
782;DHT22;374;52.568;13.402;2023-08-21T14:57:23;26.70;95.40
782;DHT22;374;52.568;13.402;2023-08-21T14:59:48;26.70;95.20
782;DHT22;374;52.568;13.402;2023-08-21T15:02:14;26.70;95.50
782;DHT22;374;52.568;13.402;2023-08-21T15:04:40;26.70;95.60
782;DHT22;374;52.568;13.402;2023-08-21T15:07:05;26.60;95.50
782;DHT22;374;52.568;13.402;2023-08-21T15:09:30;26.60;93.40
782;DHT22;374;52.568;13.402;2023-08-21T15:11:56;26.60;94.60
782;DHT22;374;52.568;13.402;2023-08-21T15:14:21;26.60;94.40
782;DHT22;374;52.568;13.402;2023-08-21T15:16:47;26.60;94.20
782;DHT22;374;52.568;13.402;2023-08-21T15:19:12;26.60;94.40
782;DHT22;374;52.568;13.402;2023-08-21T15:21:38;26.60;91.90
782;DHT22;374;52.568;13.402;2023-08-21T15:24:04;26.60;93.30
782;DHT22;374;52.568;13.402;2023-08-21T15:26:31;26.60;93.80
782;DHT22;374;52.568;13.402;2023-08-21T15:28:56;26.70;93.90
782;DHT22;374;52.568;13.402;2023-08-21T15:31:22;26.60;93.40
782;DHT22;374;52.568;13.402;2023-08-21T15:33:47;26.60;94.30
782;DHT22;374;52.568;13.402;2023-08-21T15:36:13;26.70;93.30
782;DHT22;374;52.568;13.402;2023-08-21T15:38:39;26.70;93.80
782;DHT22;374;52.568;13.402;2023-08-21T15:41:05;26.60;93.60
782;DHT22;374;52.568;13.402;2023-08-21T15:43:30;26.70;94.30
782;DHT22;374;52.568;13.402;2023-08-21T15:45:56;26.70;94.40
782;DHT22;374;52.568;13.402;2023-08-21T15:48:21;26.70;94.10
782;DHT22;374;52.568;13.402;2023-08-21T15:50:47;26.70;94.40
782;DHT22;374;52.568;13.402;2023-08-21T15:53:12;26.70;93.40
782;DHT22;374;52.568;13.402;2023-08-21T15:55:39;26.60;91.80
782;DHT22;374;52.568;13.402;2023-08-21T15:58:04;26.70;92.50
782;DHT22;374;52.568;13.402;2023-08-21T16:00:31;26.70;93.40
782;DHT22;374;52.568;13.402;2023-08-21T16:02:57;26.60;93.90
782;DHT22;374;52.568;13.402;2023-08-21T16:05:22;26.70;94.10
782;DHT22;374;52.568;13.402;2023-08-21T16:07:48;26.70;94.30
782;DHT22;374;52.568;13.402;2023-08-21T16:10:14;26.70;93.50
782;DHT22;374;52.568;13.402;2023-08-21T16:12:39;26.70;92.80
782;DHT22;374;52.568;13.402;2023-08-21T16:15:05;26.70;93.30
782;DHT22;374;52.568;13.402;2023-08-21T16:17:31;26.70;93.80
782;DHT22;374;52.568;13.402;2023-08-21T16:19:56;26.70;94.10
782;DHT22;374;52.568;13.402;2023-08-21T16:22:25;26.70;94.20
782;DHT22;374;52.568;13.402;2023-08-21T16:24:51;26.70;93.10
782;DHT22;374;52.568;13.402;2023-08-21T16:27:16;26.70;93.50
782;DHT22;374;52.568;13.402;2023-08-21T16:29:42;26.70;93.40
782;DHT22;374;52.568;13.402;2023-08-21T16:32:07;26.70;93.90
782;DHT22;374;52.568;13.402;2023-08-21T16:34:33;26.70;93.50
782;DHT22;374;52.568;13.402;2023-08-21T16:36:58;26.70;94.10
782;DHT22;374;52.568;13.402;2023-08-21T16:39:24;26.70;94.10
782;DHT22;374;52.568;13.402;2023-08-21T16:41:50;26.70;92.30
782;DHT22;374;52.568;13.402;2023-08-21T16:44:15;26.60;91.20
782;DHT22;374;52.568;13.402;2023-08-21T16:46:50;26.60;92.70
782;DHT22;374;52.568;13.402;2023-08-21T16:49:16;26.60;91.40
782;DHT22;374;52.568;13.402;2023-08-21T16:51:41;26.70;91.50
782;DHT22;374;52.568;13.402;2023-08-21T16:54:13;26.70;91.90
782;DHT22;374;52.568;13.402;2023-08-21T16:56:42;26.60;92.30
782;DHT22;374;52.568;13.402;2023-08-21T16:59:07;26.70;92.70
782;DHT22;374;52.568;13.402;2023-08-21T17:01:33;26.70;92.00
782;DHT22;374;52.568;13.402;2023-08-21T17:03:58;26.70;92.40
782;DHT22;374;52.568;13.402;2023-08-21T17:06:27;26.60;91.90
782;DHT22;374;52.568;13.402;2023-08-21T17:08:52;26.70;92.90
782;DHT22;374;52.568;13.402;2023-08-21T17:11:18;26.70;93.00
782;DHT22;374;52.568;13.402;2023-08-21T17:13:44;26.70;93.30